createdAt,value
2022-11-29T00:01:46.535Z,96098.94
2022-11-29T00:04:12.864Z,96092.09
2022-11-29T00:06:39.169Z,96089.63
2022-11-29T00:09:05.481Z,96095.31
2022-11-29T00:11:31.767Z,96090.66
2022-11-29T00:13:58.069Z,96088.56
2022-11-29T00:16:24.412Z,96093.22
2022-11-29T00:18:50.716Z,96090.19
2022-11-29T00:21:17.019Z,96094.41
2022-11-29T00:23:43.336Z,96096.34
2022-11-29T00:26:09.629Z,96087.53
2022-11-29T00:28:35.929Z,96098.00
2022-11-29T00:31:03.094Z,96089.75
2022-11-29T00:33:29.401Z,96083.22
2022-11-29T00:35:55.691Z,96083.91
2022-11-29T00:38:21.994Z,96083.84
2022-11-29T00:40:48.284Z,96076.31
2022-11-29T00:43:14.594Z,96084.13
2022-11-29T00:45:40.945Z,96079.13
2022-11-29T00:48:07.256Z,96082.41
2022-11-29T00:50:33.556Z,96076.00
2022-11-29T00:52:59.867Z,96082.75
2022-11-29T00:55:26.163Z,96082.28
2022-11-29T00:57:52.462Z,96085.16
2022-11-29T01:00:18.785Z,96079.66
2022-11-29T01:02:45.086Z,96077.53
2022-11-29T01:05:11.403Z,96074.91
2022-11-29T01:07:37.759Z,96069.66
2022-11-29T01:10:04.089Z,96073.19
2022-11-29T01:12:30.391Z,96073.69
2022-11-29T01:14:56.720Z,96072.56
2022-11-29T01:17:23.035Z,96070.78
2022-11-29T01:19:51.022Z,96083.16
2022-11-29T01:22:17.525Z,96070.16
2022-11-29T01:24:44.140Z,96076.53
2022-11-29T01:27:10.655Z,96085.00
2022-11-29T01:29:36.971Z,96078.44
2022-11-29T01:32:03.261Z,96081.50
2022-11-29T01:34:29.565Z,96077.09
2022-11-29T01:36:55.918Z,96084.06
2022-11-29T01:39:22.207Z,96078.44
2022-11-29T01:41:48.487Z,96075.25
2022-11-29T01:44:14.794Z,96075.53
2022-11-29T01:46:41.090Z,96079.50
2022-11-29T01:49:07.374Z,96073.00
2022-11-29T01:51:33.678Z,96073.88
2022-11-29T01:53:59.951Z,96075.38
2022-11-29T01:56:26.225Z,96080.75
2022-11-29T01:58:52.530Z,96084.75
2022-11-29T02:01:18.842Z,96074.66
2022-11-29T02:03:45.157Z,96076.28
2022-11-29T02:06:11.449Z,96070.16
2022-11-29T02:08:37.728Z,96071.19
2022-11-29T02:11:04.015Z,96073.09
2022-11-29T02:13:30.350Z,96061.88
2022-11-29T02:15:56.668Z,96065.75
2022-11-29T02:18:22.976Z,96062.81
2022-11-29T02:20:49.285Z,96062.19
2022-11-29T02:23:15.567Z,96060.16
2022-11-29T02:25:41.855Z,96054.78
2022-11-29T02:28:08.152Z,96065.53
2022-11-29T02:30:34.486Z,96059.47
2022-11-29T02:33:00.798Z,96060.41
2022-11-29T02:35:27.095Z,96061.88
2022-11-29T02:37:53.377Z,96064.22
2022-11-29T02:40:19.669Z,96060.09
2022-11-29T02:42:48.709Z,96060.41
2022-11-29T02:45:18.825Z,96061.44
2022-11-29T02:47:45.105Z,96061.66
2022-11-29T02:50:11.411Z,96069.59
2022-11-29T02:52:37.701Z,96071.81
2022-11-29T02:55:03.990Z,96069.16
2022-11-29T02:57:30.272Z,96072.75
2022-11-29T02:59:56.564Z,96067.16
2022-11-29T03:02:22.902Z,96072.09
2022-11-29T03:04:49.262Z,96071.34
2022-11-29T03:07:15.573Z,96074.16
2022-11-29T03:09:41.881Z,96080.44
2022-11-29T03:12:08.184Z,96079.66
2022-11-29T03:14:34.475Z,96078.59
2022-11-29T03:17:00.763Z,96073.66
2022-11-29T03:19:27.075Z,96077.63
2022-11-29T03:21:53.362Z,96074.88
2022-11-29T03:24:19.641Z,96069.34
2022-11-29T03:26:45.954Z,96075.63
2022-11-29T03:29:12.241Z,96075.69
2022-11-29T03:31:38.532Z,96069.78
2022-11-29T03:34:04.833Z,96082.25
2022-11-29T03:36:31.117Z,96081.81
2022-11-29T03:38:57.408Z,96089.44
2022-11-29T03:41:23.721Z,96086.84
2022-11-29T03:43:50.012Z,96079.47
2022-11-29T03:46:16.406Z,96082.72
2022-11-29T03:48:42.792Z,96080.13
2022-11-29T03:51:09.086Z,96084.81
2022-11-29T03:53:35.387Z,96089.78
2022-11-29T03:56:01.797Z,96085.81
2022-11-29T03:58:28.089Z,96079.75
2022-11-29T04:00:54.376Z,96082.94
2022-11-29T04:03:20.680Z,96079.16
2022-11-29T04:05:46.977Z,96086.88
2022-11-29T04:08:13.263Z,96081.91
2022-11-29T04:10:39.575Z,96082.72
2022-11-29T04:13:06.115Z,96077.81
2022-11-29T04:15:32.405Z,96082.72
2022-11-29T04:17:58.704Z,96088.59
2022-11-29T04:20:24.996Z,96081.38
2022-11-29T04:22:51.289Z,96085.09
2022-11-29T04:25:17.586Z,96080.84
2022-11-29T04:27:43.872Z,96083.09
2022-11-29T04:30:10.166Z,96075.84
2022-11-29T04:32:36.473Z,96083.59
2022-11-29T04:35:02.767Z,96088.56
2022-11-29T04:37:29.054Z,96079.72
2022-11-29T04:39:55.363Z,96087.47
2022-11-29T04:42:21.656Z,96095.09
2022-11-29T04:44:47.946Z,96089.56
2022-11-29T04:47:14.256Z,96091.84
2022-11-29T04:49:40.550Z,96093.41
2022-11-29T04:52:06.844Z,96094.50
2022-11-29T04:54:33.195Z,96097.72
2022-11-29T04:56:59.482Z,96094.88
2022-11-29T04:59:25.787Z,96100.06
2022-11-29T05:01:52.163Z,96105.44
2022-11-29T05:04:18.492Z,96104.75
2022-11-29T05:06:44.785Z,96099.06
2022-11-29T05:09:11.099Z,96105.97
2022-11-29T05:11:37.405Z,96107.56
2022-11-29T05:14:03.712Z,96112.31
2022-11-29T05:16:30.024Z,96115.84
2022-11-29T05:18:56.321Z,96111.44
2022-11-29T05:21:22.616Z,96113.16
2022-11-29T05:23:48.928Z,96124.88
2022-11-29T05:26:15.357Z,96116.97
2022-11-29T05:28:41.671Z,96122.75
2022-11-29T05:31:08.018Z,96117.31
2022-11-29T05:33:34.333Z,96112.78
2022-11-29T05:36:00.640Z,96116.00
2022-11-29T05:38:26.953Z,96119.97
2022-11-29T05:40:53.244Z,96116.69
2022-11-29T05:43:19.546Z,96127.94
2022-11-29T05:45:45.869Z,96123.72
2022-11-29T05:48:12.169Z,96129.63
2022-11-29T05:50:38.453Z,96130.03
2022-11-29T05:53:04.769Z,96133.84
2022-11-29T05:55:31.069Z,96137.31
2022-11-29T05:57:57.384Z,96138.63
2022-11-29T06:00:23.748Z,96138.38
2022-11-29T06:02:50.105Z,96140.00
2022-11-29T06:05:16.413Z,96140.38
2022-11-29T06:07:42.757Z,96136.69
2022-11-29T06:10:09.131Z,96143.03
2022-11-29T06:12:35.425Z,96142.31
2022-11-29T06:15:01.741Z,96143.97
2022-11-29T06:17:28.045Z,96140.72
2022-11-29T06:19:54.335Z,96143.56
2022-11-29T06:22:20.641Z,96147.47
2022-11-29T06:24:47.238Z,96155.16
2022-11-29T06:27:13.692Z,96148.03
2022-11-29T06:29:40.004Z,96153.09
2022-11-29T06:32:06.332Z,96150.34
2022-11-29T06:34:32.636Z,96154.22
2022-11-29T06:36:58.957Z,96160.47
2022-11-29T06:39:25.256Z,96157.75
2022-11-29T06:41:51.549Z,96160.31
2022-11-29T06:44:18.047Z,96159.06
2022-11-29T06:46:44.561Z,96169.41
2022-11-29T06:49:11.159Z,96156.22
2022-11-29T06:51:37.537Z,96162.53
2022-11-29T06:54:03.845Z,96159.81
2022-11-29T06:56:30.147Z,96167.03
2022-11-29T06:58:56.471Z,96167.72
2022-11-29T07:01:22.838Z,96166.50
2022-11-29T07:03:49.200Z,96172.41
2022-11-29T07:06:15.555Z,96171.28
2022-11-29T07:08:41.860Z,96171.97
2022-11-29T07:11:08.161Z,96173.72
2022-11-29T07:13:34.469Z,96177.25
2022-11-29T07:16:00.820Z,96177.69
2022-11-29T07:18:27.477Z,96183.16
2022-11-29T07:20:53.823Z,96179.63
2022-11-29T07:23:20.283Z,96187.13
2022-11-29T07:25:46.581Z,96187.06
2022-11-29T07:28:12.910Z,96186.66
2022-11-29T07:30:39.204Z,96185.75
2022-11-29T07:33:05.809Z,96181.03
2022-11-29T07:35:32.221Z,96186.53
2022-11-29T07:37:58.515Z,96188.53
2022-11-29T07:40:24.819Z,96189.72
2022-11-29T07:42:51.267Z,96186.50
2022-11-29T07:45:17.561Z,96189.22
2022-11-29T07:47:43.860Z,96191.66
2022-11-29T07:50:10.182Z,96193.56
2022-11-29T07:52:36.875Z,96198.31
2022-11-29T07:55:03.258Z,96194.34
2022-11-29T07:57:29.558Z,96191.13
2022-11-29T07:59:55.876Z,96196.56
2022-11-29T08:02:22.201Z,96198.56
2022-11-29T08:04:48.643Z,96195.00
2022-11-29T08:07:15.160Z,96202.91
2022-11-29T08:09:41.874Z,96211.53
2022-11-29T08:12:08.307Z,96202.84
2022-11-29T08:14:34.635Z,96210.34
2022-11-29T08:17:00.921Z,96202.72
2022-11-29T08:19:27.236Z,96203.16
2022-11-29T08:21:53.535Z,96221.16
2022-11-29T08:24:19.837Z,96208.44
2022-11-29T08:26:46.163Z,96216.66
2022-11-29T08:29:12.459Z,96212.34
2022-11-29T08:31:38.827Z,96211.75
2022-11-29T08:34:05.174Z,96217.53
2022-11-29T08:36:31.478Z,96216.34
2022-11-29T08:39:05.948Z,96222.13
2022-11-29T08:41:35.144Z,96216.59
2022-11-29T08:44:01.467Z,96225.69
2022-11-29T08:46:27.773Z,96220.75
2022-11-29T08:48:54.083Z,96223.97
2022-11-29T08:51:20.378Z,96224.16
2022-11-29T08:53:46.679Z,96234.09
2022-11-29T08:56:53.331Z,96237.09
2022-11-29T08:58:59.261Z,96238.69
2022-11-29T09:01:25.602Z,96238.16
2022-11-29T09:03:51.937Z,96239.72
2022-11-29T09:06:18.241Z,96242.78
2022-11-29T09:08:44.562Z,96248.63
2022-11-29T09:11:10.867Z,96242.22
2022-11-29T09:13:37.177Z,96245.03
2022-11-29T09:16:03.580Z,96239.88
2022-11-29T09:18:29.941Z,96242.88
2022-11-29T09:20:56.235Z,96242.50
2022-11-29T09:23:22.567Z,96246.44
2022-11-29T09:25:52.093Z,96247.56
2022-11-29T09:28:18.481Z,96253.53
2022-11-29T09:30:44.879Z,96250.78
2022-11-29T09:33:11.270Z,96257.31
2022-11-29T09:35:37.578Z,96255.16
2022-11-29T09:38:03.940Z,96262.16
2022-11-29T09:40:30.267Z,96258.88
2022-11-29T09:42:57.823Z,96258.47
2022-11-29T09:45:24.164Z,96259.03
2022-11-29T09:47:50.480Z,96259.50
2022-11-29T09:50:16.776Z,96257.16
2022-11-29T09:52:43.116Z,96264.06
2022-11-29T09:55:09.430Z,96265.22
2022-11-29T09:57:35.742Z,96265.59
2022-11-29T10:00:02.070Z,96270.28
2022-11-29T10:02:28.432Z,96264.72
2022-11-29T10:04:54.727Z,96272.53
2022-11-29T10:07:21.099Z,96263.63
2022-11-29T10:09:47.437Z,96266.22
2022-11-29T10:12:13.767Z,96269.00
2022-11-29T10:14:40.088Z,96265.81
2022-11-29T10:17:06.387Z,96272.75
2022-11-29T10:19:32.690Z,96264.00
2022-11-29T10:21:59.045Z,96268.13
2022-11-29T10:24:25.355Z,96269.53
2022-11-29T10:26:51.646Z,96257.25
2022-11-29T10:29:17.973Z,96259.59
2022-11-29T10:31:44.276Z,96258.03
2022-11-29T10:34:10.584Z,96258.09
2022-11-29T10:36:36.909Z,96263.94
2022-11-29T10:39:03.202Z,96257.56
2022-11-29T10:41:29.505Z,96257.56
2022-11-29T10:43:55.816Z,96258.31
2022-11-29T10:46:22.180Z,96262.06
2022-11-29T10:48:48.486Z,96262.06
2022-11-29T10:51:14.820Z,96265.00
2022-11-29T10:53:41.120Z,96259.47
2022-11-29T10:56:07.420Z,96256.88
2022-11-29T10:58:33.744Z,96256.44
2022-11-29T11:01:00.108Z,96245.19
2022-11-29T11:03:26.487Z,96250.56
2022-11-29T11:05:52.854Z,96251.09
2022-11-29T11:08:19.229Z,96253.66
2022-11-29T11:10:51.024Z,96245.75
2022-11-29T11:13:19.395Z,96243.28
2022-11-29T11:15:45.695Z,96244.53
2022-11-29T11:18:11.986Z,96247.53
2022-11-29T11:20:38.290Z,96245.09
2022-11-29T11:23:04.573Z,96239.72
2022-11-29T11:25:30.873Z,96243.97
2022-11-29T11:27:57.232Z,96247.53
2022-11-29T11:30:23.527Z,96242.22
2022-11-29T11:32:49.814Z,96251.69
2022-11-29T11:35:18.474Z,96248.88
2022-11-29T11:37:44.998Z,96241.81
2022-11-29T11:40:11.387Z,96252.97
2022-11-29T11:42:37.819Z,96246.19
2022-11-29T11:45:04.374Z,96247.88
2022-11-29T11:47:30.852Z,96245.03
2022-11-29T11:49:57.183Z,96240.84
2022-11-29T11:52:23.490Z,96241.28
2022-11-29T11:54:49.784Z,96242.25
2022-11-29T11:57:16.099Z,96243.63
2022-11-29T11:59:42.392Z,96250.56
2022-11-29T12:02:08.709Z,96247.78
2022-11-29T12:04:35.020Z,96246.34
2022-11-29T12:07:01.301Z,96254.63
2022-11-29T12:09:27.595Z,96254.44
2022-11-29T12:11:53.905Z,96250.22
2022-11-29T12:14:20.196Z,96248.97
2022-11-29T12:16:46.486Z,96251.75
2022-11-29T12:19:12.794Z,96256.78
2022-11-29T12:21:39.092Z,96251.16
2022-11-29T12:24:05.400Z,96253.22
2022-11-29T12:29:18.028Z,96256.44
2022-11-29T12:31:44.395Z,96254.91
2022-11-29T12:34:10.688Z,96258.13
2022-11-29T12:36:36.981Z,96258.19
2022-11-29T12:39:03.297Z,96256.00
2022-11-29T12:41:29.586Z,96266.31
2022-11-29T12:43:55.879Z,96262.38
2022-11-29T12:46:22.254Z,96261.91
2022-11-29T12:48:48.597Z,96263.47
2022-11-29T12:51:14.918Z,96260.34
2022-11-29T12:53:41.231Z,96257.66
2022-11-29T12:56:07.535Z,96256.78
2022-11-29T12:58:33.827Z,96262.38
2022-11-29T13:01:00.153Z,96263.47
2022-11-29T13:03:26.447Z,96268.44
2022-11-29T13:05:52.862Z,96263.97
2022-11-29T13:08:19.172Z,96265.84
2022-11-29T13:10:45.736Z,96274.94
2022-11-29T13:13:12.042Z,96265.06
2022-11-29T13:15:38.418Z,96267.75
2022-11-29T13:18:04.732Z,96264.97
2022-11-29T13:20:31.027Z,96259.03
2022-11-29T13:22:57.362Z,96264.75
2022-11-29T13:25:23.659Z,96268.59
2022-11-29T13:27:49.971Z,96264.59
2022-11-29T13:30:16.299Z,96262.09
2022-11-29T13:32:42.588Z,96260.44
2022-11-29T13:35:08.881Z,96263.41
2022-11-29T13:37:35.245Z,96256.00
2022-11-29T13:40:01.556Z,96258.63
2022-11-29T13:42:27.858Z,96250.75
2022-11-29T13:44:54.181Z,96262.19
2022-11-29T13:47:20.487Z,96271.50
2022-11-29T13:49:46.789Z,96267.97
2022-11-29T13:52:13.105Z,96264.06
2022-11-29T13:54:39.397Z,96267.53
2022-11-29T13:57:05.682Z,96272.19
2022-11-29T13:59:31.998Z,96268.25
2022-11-29T14:01:58.355Z,96269.88
2022-11-29T14:04:24.753Z,96272.94
2022-11-29T14:06:51.059Z,96278.66
2022-11-29T14:09:19.385Z,96275.59
2022-11-29T14:11:46.315Z,96281.16
2022-11-29T14:14:12.650Z,96283.16
2022-11-29T14:16:38.962Z,96281.41
2022-11-29T14:19:05.281Z,96278.50
2022-11-29T14:21:31.597Z,96284.44
2022-11-29T14:23:57.892Z,96280.75
2022-11-29T14:26:28.271Z,96279.19
2022-11-29T14:28:55.299Z,96279.41
2022-11-29T14:31:21.641Z,96282.75
2022-11-29T14:33:47.966Z,96279.19
2022-11-29T14:36:14.298Z,96277.69
2022-11-29T14:38:40.610Z,96274.06
2022-11-29T14:41:06.905Z,96279.53
2022-11-29T14:43:33.264Z,96285.81
2022-11-29T14:45:59.562Z,96275.53
2022-11-29T14:48:25.863Z,96280.03
2022-11-29T14:50:52.176Z,96286.00
2022-11-29T14:53:18.465Z,96284.81
2022-11-29T14:55:44.776Z,96284.81
2022-11-29T14:58:11.092Z,96283.97
2022-11-29T15:00:37.379Z,96283.84
2022-11-29T15:03:03.670Z,96284.84
2022-11-29T15:05:29.980Z,96286.81
2022-11-29T15:07:56.361Z,96289.25
2022-11-29T15:10:22.674Z,96290.72
2022-11-29T15:12:48.999Z,96294.78
2022-11-29T15:15:15.396Z,96293.13
2022-11-29T15:17:41.721Z,96297.50
2022-11-29T15:20:08.043Z,96295.91
2022-11-29T15:22:34.339Z,96304.31
2022-11-29T15:25:00.636Z,96299.19
2022-11-29T15:27:26.964Z,96298.38
2022-11-29T15:29:53.260Z,96296.88
2022-11-29T15:32:19.624Z,96300.13
2022-11-29T15:34:46.231Z,96302.66
2022-11-29T15:37:12.724Z,96306.88
2022-11-29T15:39:39.023Z,96296.25
2022-11-29T15:42:05.355Z,96301.03
2022-11-29T15:44:31.643Z,96301.81
2022-11-29T15:46:57.935Z,96306.34
2022-11-29T15:49:24.276Z,96301.09
2022-11-29T15:51:50.589Z,96294.00
2022-11-29T15:54:16.896Z,96297.75
2022-11-29T15:56:43.212Z,96302.44
2022-11-29T15:59:09.512Z,96302.38
2022-11-29T16:01:35.891Z,96300.91
2022-11-29T16:04:02.284Z,96310.06
2022-11-29T16:06:28.587Z,96302.06
2022-11-29T16:08:54.892Z,96306.06
2022-11-29T16:11:21.208Z,96311.56
2022-11-29T16:13:47.501Z,96309.22
2022-11-29T16:16:13.880Z,96325.78
2022-11-29T16:18:40.257Z,96319.47
2022-11-29T16:21:06.558Z,96318.31
2022-11-29T16:23:32.846Z,96317.13
2022-11-29T16:25:59.159Z,96331.41
2022-11-29T16:28:25.448Z,96321.09
2022-11-29T16:30:51.744Z,96317.16
2022-11-29T16:33:18.056Z,96316.88
2022-11-29T16:35:44.352Z,96321.00
2022-11-29T16:38:10.698Z,96324.47
2022-11-29T16:40:37.002Z,96331.63
2022-11-29T16:43:03.298Z,96327.28
2022-11-29T16:45:29.679Z,96319.28
2022-11-29T16:47:56.053Z,96322.75
2022-11-29T16:50:22.352Z,96315.97
2022-11-29T16:52:52.016Z,96315.28
2022-11-29T16:55:21.307Z,96315.81
2022-11-29T16:57:47.609Z,96317.66
2022-11-29T17:00:13.899Z,96308.09
2022-11-29T17:02:40.253Z,96312.78
2022-11-29T17:05:06.554Z,96326.19
2022-11-29T17:07:32.878Z,96327.91
2022-11-29T17:09:59.229Z,96324.22
2022-11-29T17:12:25.510Z,96323.50
2022-11-29T17:14:51.785Z,96323.00
2022-11-29T17:17:18.072Z,96323.28
2022-11-29T17:19:44.362Z,96328.91
2022-11-29T17:22:10.639Z,96328.38
2022-11-29T17:24:36.943Z,96319.72
2022-11-29T17:27:03.221Z,96323.69
2022-11-29T17:29:29.502Z,96332.09
2022-11-29T17:31:55.858Z,96331.75
2022-11-29T17:34:22.192Z,96331.84
2022-11-29T17:36:48.492Z,96334.75
2022-11-29T17:39:14.794Z,96334.75
2022-11-29T17:41:41.086Z,96341.06
2022-11-29T17:44:07.381Z,96339.19
2022-11-29T17:46:34.466Z,96341.91
2022-11-29T17:49:00.769Z,96345.91
2022-11-29T17:51:51.355Z,96352.28
2022-11-29T17:54:13.353Z,96352.28
2022-11-29T17:56:39.659Z,96355.94
2022-11-29T17:59:05.962Z,96343.97
2022-11-29T18:01:32.388Z,96353.03
2022-11-29T18:03:58.738Z,96359.41
2022-11-29T18:06:25.029Z,96352.28
2022-11-29T18:08:51.349Z,96353.38
2022-11-29T18:11:17.643Z,96352.59
2022-11-29T18:13:43.930Z,96359.31
2022-11-29T18:16:10.248Z,96358.53
2022-11-29T18:18:36.539Z,96360.81
2022-11-29T18:21:02.831Z,96361.25
2022-11-29T18:23:29.144Z,96362.38
2022-11-29T18:25:55.432Z,96365.97
2022-11-29T18:28:21.729Z,96365.25
2022-11-29T18:30:48.073Z,96366.84
2022-11-29T18:33:14.415Z,96367.88
2022-11-29T18:35:40.716Z,96374.94
2022-11-29T18:38:15.348Z,96365.31
2022-11-29T18:40:42.156Z,96376.91
2022-11-29T18:43:08.468Z,96370.84
2022-11-29T18:45:34.771Z,96362.75
2022-11-29T18:48:01.063Z,96367.09
2022-11-29T18:50:27.364Z,96362.63
2022-11-29T18:52:53.668Z,96366.94
2022-11-29T18:55:19.959Z,96359.91
2022-11-29T18:57:46.266Z,96359.19
2022-11-29T19:00:12.555Z,96366.03
2022-11-29T19:02:38.877Z,96367.28
2022-11-29T19:05:05.240Z,96368.06
2022-11-29T19:07:31.613Z,96368.41
2022-11-29T19:09:57.945Z,96371.25
2022-11-29T19:12:24.261Z,96376.78
2022-11-29T19:14:50.940Z,96380.69
2022-11-29T19:17:17.482Z,96376.34
2022-11-29T19:19:44.229Z,96374.81
2022-11-29T19:22:10.802Z,96378.84
2022-11-29T19:24:37.089Z,96380.00
2022-11-29T19:27:03.413Z,96379.22
2022-11-29T19:29:29.727Z,96380.38
2022-11-29T19:31:56.024Z,96377.19
2022-11-29T19:34:22.349Z,96381.56
2022-11-29T19:36:48.644Z,96380.06
2022-11-29T19:39:14.948Z,96381.56
2022-11-29T19:41:41.292Z,96382.03
2022-11-29T19:44:07.601Z,96385.53
2022-11-29T19:46:34.008Z,96386.00
2022-11-29T19:49:00.403Z,96390.31
2022-11-29T19:51:26.697Z,96387.09
2022-11-29T19:53:53.008Z,96380.38
2022-11-29T19:56:19.321Z,96383.56
2022-11-29T19:58:45.624Z,96378.06
2022-11-29T20:01:11.959Z,96385.53
2022-11-29T20:03:38.283Z,96383.91
2022-11-29T20:06:04.566Z,96383.13
2022-11-29T20:08:30.925Z,96385.06
2022-11-29T20:10:57.390Z,96381.50
2022-11-29T20:13:23.698Z,96392.22
2022-11-29T20:15:50.151Z,96396.16
2022-11-29T20:18:16.557Z,96394.94
2022-11-29T20:20:42.858Z,96394.94
2022-11-29T20:23:09.210Z,96399.69
2022-11-29T20:25:35.651Z,96395.59
2022-11-29T20:28:01.982Z,96398.19
2022-11-29T20:30:28.302Z,96397.28
2022-11-29T20:32:54.612Z,96394.53
2022-11-29T20:35:20.912Z,96395.72
2022-11-29T20:37:47.227Z,96394.09
2022-11-29T20:40:13.543Z,96398.06
2022-11-29T20:42:39.880Z,96389.69
2022-11-29T20:45:06.164Z,96398.44
2022-11-29T20:47:32.567Z,96394.03
2022-11-29T20:49:58.883Z,96400.03
2022-11-29T20:52:25.211Z,96392.94
2022-11-29T20:54:51.561Z,96397.34
2022-11-29T20:57:17.870Z,96400.06
2022-11-29T20:59:44.688Z,96397.34
2022-11-29T21:02:11.235Z,96404.09
2022-11-29T21:04:37.560Z,96395.38
2022-11-29T21:07:03.871Z,96401.69
2022-11-29T21:09:30.190Z,96406.09
2022-11-29T21:11:56.497Z,96397.72
2022-11-29T21:14:22.789Z,96406.81
2022-11-29T21:16:49.145Z,96398.13
2022-11-29T21:19:15.453Z,96400.47
2022-11-29T21:21:41.751Z,96408.91
2022-11-29T21:24:08.058Z,96404.50
2022-11-29T21:26:38.649Z,96411.63
2022-11-29T21:29:07.974Z,96402.88
2022-11-29T21:31:34.335Z,96405.19
2022-11-29T21:34:00.654Z,96406.81
2022-11-29T21:36:26.964Z,96401.34
2022-11-29T21:38:55.239Z,96404.50
2022-11-29T21:41:21.747Z,96403.31
2022-11-29T21:44:06.214Z,96400.47
2022-11-29T21:46:33.395Z,96401.09
2022-11-29T21:48:59.753Z,96399.97
2022-11-29T21:51:26.035Z,96411.47
2022-11-29T21:53:52.313Z,96395.72
2022-11-29T21:56:18.603Z,96405.19
2022-11-29T21:58:44.887Z,96404.09
2022-11-29T22:01:11.162Z,96400.50
2022-11-29T22:03:37.490Z,96406.94
2022-11-29T22:06:03.777Z,96406.13
2022-11-29T22:08:30.078Z,96408.13
2022-11-29T22:10:56.377Z,96408.13
2022-11-29T22:13:22.657Z,96401.84
2022-11-29T22:15:48.951Z,96405.59
2022-11-29T22:18:15.307Z,96406.75
2022-11-29T22:20:41.587Z,96412.94
2022-11-29T22:23:07.866Z,96413.59
2022-11-29T22:25:34.201Z,96407.53
2022-11-29T22:28:00.501Z,96416.09
2022-11-29T22:30:26.813Z,96412.28
2022-11-29T22:32:53.134Z,96413.13
2022-11-29T22:35:19.438Z,96411.06
2022-11-29T22:37:45.733Z,96413.13
2022-11-29T22:40:12.056Z,96409.41
2022-11-29T22:42:38.349Z,96409.88
2022-11-29T22:45:04.719Z,96414.16
2022-11-29T22:47:31.042Z,96410.59
2022-11-29T22:49:57.340Z,96420.22
2022-11-29T22:52:23.699Z,96415.13
2022-11-29T22:54:50.074Z,96414.75
2022-11-29T22:57:16.420Z,96413.97
2022-11-29T22:59:42.716Z,96422.53
2022-11-29T23:02:09.119Z,96413.44
2022-11-29T23:04:35.438Z,96412.34
2022-11-29T23:07:01.741Z,96413.63
2022-11-29T23:09:28.056Z,96421.03
2022-11-29T23:11:54.348Z,96417.03
2022-11-29T23:14:20.650Z,96414.28
2022-11-29T23:16:46.991Z,96409.88
2022-11-29T23:19:13.310Z,96414.91
2022-11-29T23:21:39.614Z,96415.06
2022-11-29T23:24:05.955Z,96408.13
2022-11-29T23:26:32.251Z,96408.72
2022-11-29T23:28:58.546Z,96405.72
2022-11-29T23:31:25.019Z,96413.19
2022-11-29T23:33:51.407Z,96409.50
2022-11-29T23:36:17.708Z,96408.41
2022-11-29T23:38:44.022Z,96422.56
2022-11-29T23:41:10.317Z,96408.75
2022-11-29T23:43:36.608Z,96410.00
2022-11-29T23:46:02.978Z,96416.75
2022-11-29T23:48:29.279Z,96407.59
2022-11-29T23:50:55.583Z,96413.50
2022-11-29T23:53:21.896Z,96406.94
2022-11-29T23:55:48.194Z,96406.44
2022-11-29T23:58:14.488Z,96400.59
